sensor_id;sensor_type;location;lat;lon;timestamp;P1;durP1;ratioP1;P2;durP2;ratioP2
20114;SDS011;10218;42.874;25.320;2022-08-19T00:00:37;11.07;;;7.30;;
20114;SDS011;10218;42.874;25.320;2022-08-19T00:03:06;12.17;;;7.53;;
20114;SDS011;10218;42.874;25.320;2022-08-19T00:05:34;11.43;;;7.80;;
20114;SDS011;10218;42.874;25.320;2022-08-19T00:08:01;11.77;;;7.10;;
20114;SDS011;10218;42.874;25.320;2022-08-19T00:10:28;10.00;;;7.40;;
20114;SDS011;10218;42.874;25.320;2022-08-19T00:12:56;11.33;;;6.53;;
20114;SDS011;10218;42.874;25.320;2022-08-19T00:15:22;9.33;;;7.03;;
20114;SDS011;10218;42.874;25.320;2022-08-19T00:17:50;9.17;;;7.17;;
20114;SDS011;10218;42.874;25.320;2022-08-19T00:20:18;11.13;;;7.87;;
20114;SDS011;10218;42.874;25.320;2022-08-19T00:22:46;8.40;;;7.13;;
20114;SDS011;10218;42.874;25.320;2022-08-19T00:25:15;8.50;;;7.13;;
20114;SDS011;10218;42.874;25.320;2022-08-19T00:27:43;8.40;;;7.40;;
20114;SDS011;10218;42.874;25.320;2022-08-19T00:30:10;8.97;;;7.33;;
20114;SDS011;10218;42.874;25.320;2022-08-19T00:32:39;14.03;;;8.20;;
20114;SDS011;10218;42.874;25.320;2022-08-19T00:35:06;11.97;;;7.20;;
20114;SDS011;10218;42.874;25.320;2022-08-19T00:37:34;10.10;;;7.87;;
20114;SDS011;10218;42.874;25.320;2022-08-19T00:40:02;12.03;;;7.67;;
20114;SDS011;10218;42.874;25.320;2022-08-19T00:42:31;9.47;;;7.90;;
20114;SDS011;10218;42.874;25.320;2022-08-19T00:44:59;9.17;;;7.07;;
20114;SDS011;10218;42.874;25.320;2022-08-19T00:47:26;8.27;;;7.10;;
20114;SDS011;10218;42.874;25.320;2022-08-19T00:49:55;8.77;;;7.37;;
20114;SDS011;10218;42.874;25.320;2022-08-19T00:52:27;11.40;;;7.97;;
20114;SDS011;10218;42.874;25.320;2022-08-19T00:54:58;11.00;;;8.20;;
20114;SDS011;10218;42.874;25.320;2022-08-19T00:57:31;9.67;;;7.77;;
20114;SDS011;10218;42.874;25.320;2022-08-19T01:00:04;7.90;;;7.00;;
20114;SDS011;10218;42.874;25.320;2022-08-19T01:02:36;9.33;;;7.70;;
20114;SDS011;10218;42.874;25.320;2022-08-19T01:05:06;11.40;;;7.23;;
20114;SDS011;10218;42.874;25.320;2022-08-19T01:07:38;8.47;;;6.97;;
20114;SDS011;10218;42.874;25.320;2022-08-19T01:10:08;8.47;;;6.80;;
20114;SDS011;10218;42.874;25.320;2022-08-19T01:12:38;8.80;;;6.97;;
20114;SDS011;10218;42.874;25.320;2022-08-19T01:15:07;9.33;;;7.00;;
20114;SDS011;10218;42.874;25.320;2022-08-19T01:17:37;11.90;;;7.60;;
20114;SDS011;10218;42.874;25.320;2022-08-19T01:20:09;8.67;;;7.27;;
20114;SDS011;10218;42.874;25.320;2022-08-19T01:25:15;9.10;;;7.73;;
20114;SDS011;10218;42.874;25.320;2022-08-19T01:27:45;9.17;;;7.07;;
20114;SDS011;10218;42.874;25.320;2022-08-19T01:30:20;9.57;;;6.73;;
20114;SDS011;10218;42.874;25.320;2022-08-19T01:32:52;11.13;;;7.27;;
20114;SDS011;10218;42.874;25.320;2022-08-19T01:35:21;9.57;;;7.53;;
20114;SDS011;10218;42.874;25.320;2022-08-19T01:37:51;11.63;;;7.43;;
20114;SDS011;10218;42.874;25.320;2022-08-19T01:40:23;12.17;;;7.97;;
20114;SDS011;10218;42.874;25.320;2022-08-19T01:42:53;12.23;;;7.73;;
20114;SDS011;10218;42.874;25.320;2022-08-19T01:45:21;10.10;;;7.50;;
20114;SDS011;10218;42.874;25.320;2022-08-19T01:47:50;11.37;;;7.70;;
20114;SDS011;10218;42.874;25.320;2022-08-19T01:50:18;9.90;;;7.90;;
20114;SDS011;10218;42.874;25.320;2022-08-19T01:52:45;12.77;;;7.80;;
20114;SDS011;10218;42.874;25.320;2022-08-19T01:55:14;11.30;;;7.47;;
20114;SDS011;10218;42.874;25.320;2022-08-19T01:57:46;12.03;;;7.83;;
20114;SDS011;10218;42.874;25.320;2022-08-19T02:00:18;12.03;;;8.27;;
20114;SDS011;10218;42.874;25.320;2022-08-19T02:02:47;12.80;;;8.13;;
20114;SDS011;10218;42.874;25.320;2022-08-19T02:05:14;8.80;;;7.50;;
20114;SDS011;10218;42.874;25.320;2022-08-19T02:07:44;11.40;;;7.97;;
20114;SDS011;10218;42.874;25.320;2022-08-19T02:10:14;11.97;;;8.57;;
20114;SDS011;10218;42.874;25.320;2022-08-19T02:12:44;12.37;;;8.93;;
20114;SDS011;10218;42.874;25.320;2022-08-19T02:15:12;13.20;;;9.17;;
20114;SDS011;10218;42.874;25.320;2022-08-19T02:17:39;13.80;;;8.27;;
20114;SDS011;10218;42.874;25.320;2022-08-19T02:20:07;10.37;;;7.40;;
20114;SDS011;10218;42.874;25.320;2022-08-19T02:22:35;12.63;;;8.13;;
20114;SDS011;10218;42.874;25.320;2022-08-19T02:25:02;9.00;;;7.33;;
20114;SDS011;10218;42.874;25.320;2022-08-19T02:27:31;14.77;;;11.77;;
20114;SDS011;10218;42.874;25.320;2022-08-19T02:30:00;10.23;;;7.70;;
20114;SDS011;10218;42.874;25.320;2022-08-19T02:32:27;10.90;;;8.57;;
20114;SDS011;10218;42.874;25.320;2022-08-19T02:34:55;9.37;;;7.70;;
20114;SDS011;10218;42.874;25.320;2022-08-19T02:37:22;11.13;;;8.07;;
20114;SDS011;10218;42.874;25.320;2022-08-19T02:40:08;11.20;;;8.93;;
20114;SDS011;10218;42.874;25.320;2022-08-19T02:42:35;13.47;;;9.13;;
20114;SDS011;10218;42.874;25.320;2022-08-19T02:45:03;9.23;;;7.80;;
20114;SDS011;10218;42.874;25.320;2022-08-19T02:47:31;16.00;;;10.37;;
20114;SDS011;10218;42.874;25.320;2022-08-19T02:50:00;10.47;;;8.00;;
20114;SDS011;10218;42.874;25.320;2022-08-19T02:52:28;16.43;;;9.70;;
20114;SDS011;10218;42.874;25.320;2022-08-19T02:54:55;10.73;;;8.77;;
20114;SDS011;10218;42.874;25.320;2022-08-19T02:57:24;9.80;;;7.63;;
20114;SDS011;10218;42.874;25.320;2022-08-19T02:59:51;10.30;;;8.37;;
20114;SDS011;10218;42.874;25.320;2022-08-19T03:02:19;12.47;;;7.83;;
20114;SDS011;10218;42.874;25.320;2022-08-19T03:04:47;9.50;;;7.87;;
20114;SDS011;10218;42.874;25.320;2022-08-19T03:07:14;10.50;;;8.63;;
20114;SDS011;10218;42.874;25.320;2022-08-19T03:09:42;10.17;;;8.37;;
20114;SDS011;10218;42.874;25.320;2022-08-19T03:12:09;12.57;;;8.30;;
20114;SDS011;10218;42.874;25.320;2022-08-19T03:14:37;14.03;;;9.07;;
20114;SDS011;10218;42.874;25.320;2022-08-19T03:17:04;12.30;;;8.73;;
20114;SDS011;10218;42.874;25.320;2022-08-19T03:19:32;11.03;;;7.90;;
20114;SDS011;10218;42.874;25.320;2022-08-19T03:21:59;13.27;;;8.00;;
20114;SDS011;10218;42.874;25.320;2022-08-19T03:24:27;12.50;;;8.40;;
20114;SDS011;10218;42.874;25.320;2022-08-19T03:26:54;10.40;;;8.20;;
20114;SDS011;10218;42.874;25.320;2022-08-19T03:29:24;11.60;;;8.33;;
20114;SDS011;10218;42.874;25.320;2022-08-19T03:31:55;9.03;;;7.73;;
20114;SDS011;10218;42.874;25.320;2022-08-19T03:34:26;11.87;;;8.70;;
20114;SDS011;10218;42.874;25.320;2022-08-19T03:36:55;11.93;;;8.30;;
20114;SDS011;10218;42.874;25.320;2022-08-19T03:39:24;12.97;;;8.53;;
20114;SDS011;10218;42.874;25.320;2022-08-19T03:41:53;10.60;;;8.40;;
20114;SDS011;10218;42.874;25.320;2022-08-19T03:44:23;15.47;;;9.23;;
20114;SDS011;10218;42.874;25.320;2022-08-19T03:46:53;16.03;;;11.13;;
20114;SDS011;10218;42.874;25.320;2022-08-19T03:49:24;13.60;;;9.40;;
20114;SDS011;10218;42.874;25.320;2022-08-19T03:51:56;13.83;;;9.00;;
20114;SDS011;10218;42.874;25.320;2022-08-19T03:54:26;15.13;;;8.33;;
20114;SDS011;10218;42.874;25.320;2022-08-19T03:56:55;18.07;;;9.50;;
20114;SDS011;10218;42.874;25.320;2022-08-19T03:59:28;13.83;;;10.33;;
20114;SDS011;10218;42.874;25.320;2022-08-19T04:01:59;10.33;;;8.63;;
20114;SDS011;10218;42.874;25.320;2022-08-19T04:04:28;10.73;;;8.27;;
20114;SDS011;10218;42.874;25.320;2022-08-19T04:06:56;17.53;;;12.67;;
20114;SDS011;10218;42.874;25.320;2022-08-19T04:09:23;11.93;;;8.23;;
20114;SDS011;10218;42.874;25.320;2022-08-19T04:11:52;17.67;;;13.13;;
20114;SDS011;10218;42.874;25.320;2022-08-19T04:14:22;11.00;;;8.60;;
20114;SDS011;10218;42.874;25.320;2022-08-19T04:16:52;15.27;;;8.70;;
20114;SDS011;10218;42.874;25.320;2022-08-19T04:19:20;13.20;;;9.27;;
20114;SDS011;10218;42.874;25.320;2022-08-19T04:21:48;12.73;;;8.67;;
20114;SDS011;10218;42.874;25.320;2022-08-19T04:24:17;11.57;;;9.07;;
20114;SDS011;10218;42.874;25.320;2022-08-19T04:26:45;11.90;;;8.97;;
20114;SDS011;10218;42.874;25.320;2022-08-19T04:29:14;11.13;;;8.73;;
20114;SDS011;10218;42.874;25.320;2022-08-19T04:31:44;12.07;;;8.80;;
20114;SDS011;10218;42.874;25.320;2022-08-19T04:34:12;15.13;;;9.00;;
20114;SDS011;10218;42.874;25.320;2022-08-19T04:36:42;14.87;;;9.57;;
20114;SDS011;10218;42.874;25.320;2022-08-19T04:39:12;13.27;;;9.47;;
20114;SDS011;10218;42.874;25.320;2022-08-19T04:41:43;11.60;;;9.13;;
20114;SDS011;10218;42.874;25.320;2022-08-19T04:44:33;12.67;;;8.67;;
20114;SDS011;10218;42.874;25.320;2022-08-19T04:47:02;15.10;;;9.50;;
20114;SDS011;10218;42.874;25.320;2022-08-19T04:49:32;12.37;;;9.20;;
20114;SDS011;10218;42.874;25.320;2022-08-19T04:51:59;13.80;;;8.90;;
20114;SDS011;10218;42.874;25.320;2022-08-19T04:54:27;10.23;;;8.77;;
20114;SDS011;10218;42.874;25.320;2022-08-19T04:56:54;12.60;;;8.73;;
20114;SDS011;10218;42.874;25.320;2022-08-19T04:59:21;10.03;;;8.50;;
20114;SDS011;10218;42.874;25.320;2022-08-19T05:01:48;12.57;;;8.93;;
20114;SDS011;10218;42.874;25.320;2022-08-19T05:04:18;9.77;;;8.30;;
20114;SDS011;10218;42.874;25.320;2022-08-19T05:06:46;12.00;;;8.60;;
20114;SDS011;10218;42.874;25.320;2022-08-19T05:09:15;10.30;;;8.90;;
20114;SDS011;10218;42.874;25.320;2022-08-19T05:11:43;14.00;;;9.10;;
20114;SDS011;10218;42.874;25.320;2022-08-19T05:14:11;11.53;;;8.67;;
20114;SDS011;10218;42.874;25.320;2022-08-19T05:16:41;12.43;;;9.77;;
20114;SDS011;10218;42.874;25.320;2022-08-19T05:19:08;13.90;;;9.30;;
20114;SDS011;10218;42.874;25.320;2022-08-19T05:21:54;14.57;;;9.33;;
20114;SDS011;10218;42.874;25.320;2022-08-19T05:24:41;10.47;;;8.63;;
20114;SDS011;10218;42.874;25.320;2022-08-19T05:27:16;13.47;;;8.77;;
20114;SDS011;10218;42.874;25.320;2022-08-19T05:29:44;15.23;;;9.17;;
20114;SDS011;10218;42.874;25.320;2022-08-19T05:32:11;10.40;;;8.60;;
20114;SDS011;10218;42.874;25.320;2022-08-19T05:34:38;12.87;;;8.70;;
20114;SDS011;10218;42.874;25.320;2022-08-19T05:37:07;12.33;;;9.07;;
20114;SDS011;10218;42.874;25.320;2022-08-19T05:39:35;12.03;;;8.50;;
20114;SDS011;10218;42.874;25.320;2022-08-19T05:42:05;12.23;;;8.43;;
20114;SDS011;10218;42.874;25.320;2022-08-19T05:44:36;11.13;;;8.77;;
20114;SDS011;10218;42.874;25.320;2022-08-19T05:47:11;11.07;;;8.40;;
20114;SDS011;10218;42.874;25.320;2022-08-19T05:49:39;13.07;;;8.67;;
20114;SDS011;10218;42.874;25.320;2022-08-19T05:52:09;12.77;;;8.20;;
20114;SDS011;10218;42.874;25.320;2022-08-19T05:54:38;8.97;;;8.00;;
20114;SDS011;10218;42.874;25.320;2022-08-19T05:57:09;12.37;;;8.83;;
20114;SDS011;10218;42.874;25.320;2022-08-19T05:59:37;14.97;;;8.83;;
20114;SDS011;10218;42.874;25.320;2022-08-19T06:02:05;11.77;;;8.77;;
20114;SDS011;10218;42.874;25.320;2022-08-19T06:04:33;11.67;;;8.47;;
20114;SDS011;10218;42.874;25.320;2022-08-19T06:07:00;9.43;;;8.07;;
20114;SDS011;10218;42.874;25.320;2022-08-19T06:09:28;12.10;;;8.80;;
20114;SDS011;10218;42.874;25.320;2022-08-19T06:11:57;10.70;;;8.47;;
20114;SDS011;10218;42.874;25.320;2022-08-19T06:14:30;11.07;;;8.03;;
20114;SDS011;10218;42.874;25.320;2022-08-19T06:17:00;9.13;;;7.67;;
20114;SDS011;10218;42.874;25.320;2022-08-19T06:19:31;11.80;;;8.83;;
20114;SDS011;10218;42.874;25.320;2022-08-19T06:21:59;11.47;;;7.67;;
20114;SDS011;10218;42.874;25.320;2022-08-19T06:24:28;10.20;;;8.17;;
20114;SDS011;10218;42.874;25.320;2022-08-19T06:26:56;9.33;;;8.00;;
20114;SDS011;10218;42.874;25.320;2022-08-19T06:29:26;11.70;;;8.20;;
20114;SDS011;10218;42.874;25.320;2022-08-19T06:31:55;10.37;;;7.63;;
20114;SDS011;10218;42.874;25.320;2022-08-19T06:34:25;9.33;;;7.77;;
20114;SDS011;10218;42.874;25.320;2022-08-19T06:37:01;12.30;;;7.63;;
20114;SDS011;10218;42.874;25.320;2022-08-19T06:39:30;9.67;;;7.97;;
20114;SDS011;10218;42.874;25.320;2022-08-19T06:42:02;10.07;;;7.77;;
20114;SDS011;10218;42.874;25.320;2022-08-19T06:44:34;9.00;;;7.60;;
20114;SDS011;10218;42.874;25.320;2022-08-19T06:47:03;9.13;;;7.30;;
20114;SDS011;10218;42.874;25.320;2022-08-19T06:49:32;14.77;;;8.37;;
20114;SDS011;10218;42.874;25.320;2022-08-19T06:52:00;14.83;;;7.40;;
20114;SDS011;10218;42.874;25.320;2022-08-19T06:54:27;17.53;;;8.33;;
20114;SDS011;10218;42.874;25.320;2022-08-19T06:56:56;11.90;;;8.10;;
20114;SDS011;10218;42.874;25.320;2022-08-19T06:59:31;14.67;;;8.23;;
20114;SDS011;10218;42.874;25.320;2022-08-19T07:02:01;9.93;;;7.80;;
20114;SDS011;10218;42.874;25.320;2022-08-19T07:04:32;13.30;;;7.97;;
20114;SDS011;10218;42.874;25.320;2022-08-19T07:07:03;8.77;;;7.07;;
20114;SDS011;10218;42.874;25.320;2022-08-19T07:09:40;14.00;;;8.30;;
20114;SDS011;10218;42.874;25.320;2022-08-19T07:12:09;11.47;;;8.00;;
20114;SDS011;10218;42.874;25.320;2022-08-19T07:14:39;9.47;;;7.40;;
20114;SDS011;10218;42.874;25.320;2022-08-19T07:17:10;10.97;;;7.70;;
20114;SDS011;10218;42.874;25.320;2022-08-19T07:19:39;10.77;;;7.40;;
20114;SDS011;10218;42.874;25.320;2022-08-19T07:22:08;10.50;;;7.57;;
20114;SDS011;10218;42.874;25.320;2022-08-19T07:24:36;9.13;;;6.50;;
20114;SDS011;10218;42.874;25.320;2022-08-19T07:27:09;8.37;;;7.20;;
20114;SDS011;10218;42.874;25.320;2022-08-19T07:29:37;8.60;;;7.07;;
20114;SDS011;10218;42.874;25.320;2022-08-19T07:32:05;7.80;;;6.37;;
20114;SDS011;10218;42.874;25.320;2022-08-19T07:34:33;9.33;;;7.23;;
20114;SDS011;10218;42.874;25.320;2022-08-19T07:37:06;9.60;;;6.32;;
20114;SDS011;10218;42.874;25.320;2022-08-19T07:39:35;8.00;;;6.70;;
20114;SDS011;10218;42.874;25.320;2022-08-19T07:42:06;7.03;;;6.10;;
20114;SDS011;10218;42.874;25.320;2022-08-19T07:44:39;7.70;;;6.18;;
20114;SDS011;10218;42.874;25.320;2022-08-19T07:47:07;9.85;;;6.03;;
20114;SDS011;10218;42.874;25.320;2022-08-19T07:49:34;9.38;;;5.78;;
20114;SDS011;10218;42.874;25.320;2022-08-19T07:52:05;8.65;;;6.30;;
20114;SDS011;10218;42.874;25.320;2022-08-19T07:54:34;9.45;;;6.30;;
20114;SDS011;10218;42.874;25.320;2022-08-19T07:57:03;9.13;;;6.25;;
20114;SDS011;10218;42.874;25.320;2022-08-19T07:59:31;8.55;;;6.80;;
20114;SDS011;10218;42.874;25.320;2022-08-19T08:01:58;8.90;;;5.80;;
20114;SDS011;10218;42.874;25.320;2022-08-19T08:04:28;7.85;;;6.37;;
20114;SDS011;10218;42.874;25.320;2022-08-19T08:07:15;9.52;;;6.03;;
20114;SDS011;10218;42.874;25.320;2022-08-19T08:10:02;6.78;;;5.80;;
20114;SDS011;10218;42.874;25.320;2022-08-19T08:12:37;8.55;;;5.55;;
20114;SDS011;10218;42.874;25.320;2022-08-19T08:15:11;8.13;;;5.80;;
20114;SDS011;10218;42.874;25.320;2022-08-19T08:17:45;10.18;;;6.37;;
20114;SDS011;10218;42.874;25.320;2022-08-19T08:20:15;7.50;;;6.30;;
20114;SDS011;10218;42.874;25.320;2022-08-19T08:22:47;7.47;;;6.35;;
20114;SDS011;10218;42.874;25.320;2022-08-19T08:25:34;9.38;;;6.90;;
20114;SDS011;10218;42.874;25.320;2022-08-19T08:28:02;14.13;;;6.50;;
20114;SDS011;10218;42.874;25.320;2022-08-19T08:30:30;12.40;;;6.37;;
20114;SDS011;10218;42.874;25.320;2022-08-19T08:32:59;9.50;;;6.03;;
20114;SDS011;10218;42.874;25.320;2022-08-19T08:35:26;10.98;;;6.28;;
20114;SDS011;10218;42.874;25.320;2022-08-19T08:37:54;9.35;;;6.07;;
20114;SDS011;10218;42.874;25.320;2022-08-19T08:46:00;7.32;;;5.85;;
20114;SDS011;10218;42.874;25.320;2022-08-19T08:51:51;7.78;;;6.05;;
20114;SDS011;10218;42.874;25.320;2022-08-19T08:54:32;9.57;;;5.87;;
20114;SDS011;10218;42.874;25.320;2022-08-19T08:57:12;10.27;;;6.00;;
20114;SDS011;10218;42.874;25.320;2022-08-19T08:59:53;7.40;;;5.57;;
20114;SDS011;10218;42.874;25.320;2022-08-19T09:02:43;7.50;;;5.53;;
20114;SDS011;10218;42.874;25.320;2022-08-19T09:05:11;7.43;;;5.40;;
20114;SDS011;10218;42.874;25.320;2022-08-19T09:10:19;6.12;;;5.53;;
20114;SDS011;10218;42.874;25.320;2022-08-19T09:15:34;9.77;;;5.47;;
20114;SDS011;10218;42.874;25.320;2022-08-19T09:18:05;6.72;;;5.00;;
20114;SDS011;10218;42.874;25.320;2022-08-19T09:20:44;6.20;;;5.22;;
20114;SDS011;10218;42.874;25.320;2022-08-19T09:23:23;6.68;;;5.25;;
20114;SDS011;10218;42.874;25.320;2022-08-19T09:25:52;7.20;;;5.68;;
20114;SDS011;10218;42.874;25.320;2022-08-19T09:28:22;6.95;;;5.32;;
20114;SDS011;10218;42.874;25.320;2022-08-19T09:30:49;8.75;;;5.65;;
20114;SDS011;10218;42.874;25.320;2022-08-19T09:33:18;6.30;;;5.30;;
20114;SDS011;10218;42.874;25.320;2022-08-19T09:35:46;6.90;;;5.28;;
20114;SDS011;10218;42.874;25.320;2022-08-19T09:38:13;7.35;;;5.50;;
20114;SDS011;10218;42.874;25.320;2022-08-19T09:40:40;9.60;;;6.37;;
20114;SDS011;10218;42.874;25.320;2022-08-19T09:43:07;7.37;;;6.50;;
20114;SDS011;10218;42.874;25.320;2022-08-19T09:45:36;6.65;;;5.95;;
20114;SDS011;10218;42.874;25.320;2022-08-19T09:48:04;7.47;;;5.65;;
20114;SDS011;10218;42.874;25.320;2022-08-19T09:50:31;8.13;;;5.90;;
20114;SDS011;10218;42.874;25.320;2022-08-19T09:53:00;8.45;;;5.45;;
20114;SDS011;10218;42.874;25.320;2022-08-19T09:55:27;7.62;;;5.40;;
20114;SDS011;10218;42.874;25.320;2022-08-19T09:57:54;7.32;;;5.95;;
20114;SDS011;10218;42.874;25.320;2022-08-19T10:00:21;8.90;;;6.07;;
20114;SDS011;10218;42.874;25.320;2022-08-19T10:02:49;9.57;;;5.82;;
20114;SDS011;10218;42.874;25.320;2022-08-19T10:05:16;6.50;;;5.90;;
20114;SDS011;10218;42.874;25.320;2022-08-19T10:08:02;6.43;;;5.37;;
20114;SDS011;10218;42.874;25.320;2022-08-19T10:10:29;7.15;;;6.10;;
20114;SDS011;10218;42.874;25.320;2022-08-19T10:12:56;8.85;;;5.57;;
20114;SDS011;10218;42.874;25.320;2022-08-19T10:15:23;7.35;;;5.87;;
20114;SDS011;10218;42.874;25.320;2022-08-19T10:17:50;6.82;;;6.03;;
20114;SDS011;10218;42.874;25.320;2022-08-19T10:20:17;7.00;;;5.20;;
20114;SDS011;10218;42.874;25.320;2022-08-19T10:22:45;6.68;;;5.82;;
20114;SDS011;10218;42.874;25.320;2022-08-19T10:25:12;6.12;;;5.40;;
20114;SDS011;10218;42.874;25.320;2022-08-19T10:27:41;7.07;;;5.68;;
20114;SDS011;10218;42.874;25.320;2022-08-19T10:30:11;8.45;;;5.72;;
20114;SDS011;10218;42.874;25.320;2022-08-19T10:32:39;7.95;;;5.80;;
20114;SDS011;10218;42.874;25.320;2022-08-19T10:35:06;8.27;;;6.25;;
20114;SDS011;10218;42.874;25.320;2022-08-19T10:37:36;7.65;;;6.50;;
20114;SDS011;10218;42.874;25.320;2022-08-19T10:40:07;8.02;;;6.30;;
20114;SDS011;10218;42.874;25.320;2022-08-19T10:42:37;7.10;;;6.40;;
20114;SDS011;10218;42.874;25.320;2022-08-19T10:45:05;9.45;;;6.12;;
20114;SDS011;10218;42.874;25.320;2022-08-19T10:47:33;7.53;;;6.40;;
20114;SDS011;10218;42.874;25.320;2022-08-19T10:50:00;7.28;;;6.12;;
20114;SDS011;10218;42.874;25.320;2022-08-19T10:52:47;16.20;;;9.95;;
20114;SDS011;10218;42.874;25.320;2022-08-19T10:55:20;6.55;;;5.95;;
20114;SDS011;10218;42.874;25.320;2022-08-19T10:58:15;8.05;;;6.87;;
20114;SDS011;10218;42.874;25.320;2022-08-19T11:00:46;9.52;;;6.93;;
20114;SDS011;10218;42.874;25.320;2022-08-19T11:03:19;7.97;;;6.15;;
20114;SDS011;10218;42.874;25.320;2022-08-19T11:05:56;10.98;;;6.70;;
20114;SDS011;10218;42.874;25.320;2022-08-19T11:08:28;8.00;;;6.15;;
20114;SDS011;10218;42.874;25.320;2022-08-19T11:10:58;10.32;;;5.82;;
20114;SDS011;10218;42.874;25.320;2022-08-19T11:13:32;6.45;;;5.70;;
20114;SDS011;10218;42.874;25.320;2022-08-19T11:16:13;7.70;;;5.40;;
20114;SDS011;10218;42.874;25.320;2022-08-19T11:18:44;11.57;;;6.07;;
20114;SDS011;10218;42.874;25.320;2022-08-19T11:21:16;7.72;;;6.20;;
20114;SDS011;10218;42.874;25.320;2022-08-19T11:23:47;7.25;;;6.20;;
20114;SDS011;10218;42.874;25.320;2022-08-19T11:26:17;7.72;;;5.80;;
20114;SDS011;10218;42.874;25.320;2022-08-19T11:28:45;6.87;;;5.20;;
20114;SDS011;10218;42.874;25.320;2022-08-19T11:31:16;6.40;;;5.10;;
20114;SDS011;10218;42.874;25.320;2022-08-19T11:33:46;6.07;;;5.37;;
20114;SDS011;10218;42.874;25.320;2022-08-19T11:36:17;6.90;;;5.28;;
20114;SDS011;10218;42.874;25.320;2022-08-19T11:38:44;7.47;;;5.18;;
20114;SDS011;10218;42.874;25.320;2022-08-19T11:41:15;8.00;;;5.55;;
20114;SDS011;10218;42.874;25.320;2022-08-19T11:43:44;6.22;;;5.40;;
20114;SDS011;10218;42.874;25.320;2022-08-19T11:46:12;6.82;;;6.03;;
20114;SDS011;10218;42.874;25.320;2022-08-19T11:48:40;6.72;;;5.50;;
20114;SDS011;10218;42.874;25.320;2022-08-19T11:51:09;7.05;;;5.80;;
20114;SDS011;10218;42.874;25.320;2022-08-19T11:53:38;10.95;;;5.62;;
20114;SDS011;10218;42.874;25.320;2022-08-19T11:56:07;7.18;;;5.55;;
20114;SDS011;10218;42.874;25.320;2022-08-19T11:58:35;8.60;;;5.45;;
20114;SDS011;10218;42.874;25.320;2022-08-19T12:01:07;5.80;;;4.97;;
20114;SDS011;10218;42.874;25.320;2022-08-19T12:03:35;6.28;;;4.90;;
20114;SDS011;10218;42.874;25.320;2022-08-19T12:06:08;6.90;;;4.80;;
20114;SDS011;10218;42.874;25.320;2022-08-19T12:08:37;6.68;;;4.87;;
20114;SDS011;10218;42.874;25.320;2022-08-19T12:11:04;6.40;;;5.30;;
20114;SDS011;10218;42.874;25.320;2022-08-19T12:13:34;8.43;;;5.72;;
20114;SDS011;10218;42.874;25.320;2022-08-19T12:16:25;6.12;;;5.53;;
20114;SDS011;10218;42.874;25.320;2022-08-19T12:18:50;9.88;;;6.00;;
20114;SDS011;10218;42.874;25.320;2022-08-19T12:21:19;6.80;;;5.35;;
20114;SDS011;10218;42.874;25.320;2022-08-19T12:23:49;6.90;;;5.43;;
20114;SDS011;10218;42.874;25.320;2022-08-19T12:26:24;6.07;;;4.85;;
20114;SDS011;10218;42.874;25.320;2022-08-19T12:28:53;7.35;;;4.85;;
20114;SDS011;10218;42.874;25.320;2022-08-19T12:31:20;6.00;;;5.05;;
20114;SDS011;10218;42.874;25.320;2022-08-19T12:33:47;9.85;;;5.22;;
20114;SDS011;10218;42.874;25.320;2022-08-19T12:36:16;6.35;;;5.03;;
20114;SDS011;10218;42.874;25.320;2022-08-19T12:38:44;6.62;;;5.40;;
20114;SDS011;10218;42.874;25.320;2022-08-19T12:41:14;6.10;;;5.05;;
20114;SDS011;10218;42.874;25.320;2022-08-19T12:43:44;6.37;;;4.93;;
20114;SDS011;10218;42.874;25.320;2022-08-19T12:46:12;5.95;;;4.68;;
20114;SDS011;10218;42.874;25.320;2022-08-19T12:48:40;7.05;;;5.00;;
20114;SDS011;10218;42.874;25.320;2022-08-19T12:51:09;7.30;;;5.43;;
20114;SDS011;10218;42.874;25.320;2022-08-19T12:53:40;7.65;;;4.87;;
20114;SDS011;10218;42.874;25.320;2022-08-19T12:56:08;8.80;;;4.82;;
20114;SDS011;10218;42.874;25.320;2022-08-19T12:58:37;6.43;;;5.10;;
20114;SDS011;10218;42.874;25.320;2022-08-19T13:01:12;5.47;;;4.97;;
20114;SDS011;10218;42.874;25.320;2022-08-19T13:03:41;6.53;;;4.62;;
20114;SDS011;10218;42.874;25.320;2022-08-19T13:06:09;5.87;;;4.75;;
20114;SDS011;10218;42.874;25.320;2022-08-19T13:08:37;6.03;;;4.72;;
20114;SDS011;10218;42.874;25.320;2022-08-19T13:11:12;6.22;;;4.82;;
20114;SDS011;10218;42.874;25.320;2022-08-19T13:13:45;5.62;;;5.03;;
20114;SDS011;10218;42.874;25.320;2022-08-19T13:16:14;6.32;;;4.70;;
20114;SDS011;10218;42.874;25.320;2022-08-19T13:18:41;6.32;;;5.15;;
20114;SDS011;10218;42.874;25.320;2022-08-19T13:21:11;8.30;;;5.47;;
20114;SDS011;10218;42.874;25.320;2022-08-19T13:23:40;5.60;;;4.90;;
20114;SDS011;10218;42.874;25.320;2022-08-19T13:26:08;9.07;;;5.85;;
20114;SDS011;10218;42.874;25.320;2022-08-19T13:28:36;6.32;;;4.68;;
20114;SDS011;10218;42.874;25.320;2022-08-19T13:31:23;9.80;;;5.35;;
20114;SDS011;10218;42.874;25.320;2022-08-19T13:34:14;9.00;;;4.87;;
20114;SDS011;10218;42.874;25.320;2022-08-19T13:36:42;5.35;;;4.45;;
20114;SDS011;10218;42.874;25.320;2022-08-19T13:39:09;6.93;;;5.10;;
20114;SDS011;10218;42.874;25.320;2022-08-19T13:41:37;11.38;;;5.00;;
20114;SDS011;10218;42.874;25.320;2022-08-19T13:44:14;7.47;;;4.72;;
20114;SDS011;10218;42.874;25.320;2022-08-19T13:46:45;9.85;;;4.55;;
20114;SDS011;10218;42.874;25.320;2022-08-19T13:49:19;6.07;;;4.87;;
20114;SDS011;10218;42.874;25.320;2022-08-19T13:51:47;7.95;;;5.03;;
20114;SDS011;10218;42.874;25.320;2022-08-19T13:54:14;5.43;;;4.93;;
20114;SDS011;10218;42.874;25.320;2022-08-19T13:56:42;7.65;;;4.78;;
20114;SDS011;10218;42.874;25.320;2022-08-19T13:59:11;6.15;;;4.75;;
20114;SDS011;10218;42.874;25.320;2022-08-19T14:01:39;5.80;;;5.15;;
20114;SDS011;10218;42.874;25.320;2022-08-19T14:04:08;7.03;;;4.97;;
20114;SDS011;10218;42.874;25.320;2022-08-19T14:06:35;7.57;;;5.35;;
20114;SDS011;10218;42.874;25.320;2022-08-19T14:09:02;7.32;;;5.20;;
20114;SDS011;10218;42.874;25.320;2022-08-19T14:11:31;5.12;;;4.53;;
20114;SDS011;10218;42.874;25.320;2022-08-19T14:13:58;7.28;;;5.20;;
20114;SDS011;10218;42.874;25.320;2022-08-19T14:16:25;12.77;;;5.68;;
20114;SDS011;10218;42.874;25.320;2022-08-19T14:18:54;5.10;;;4.60;;
20114;SDS011;10218;42.874;25.320;2022-08-19T14:21:22;8.98;;;5.22;;
20114;SDS011;10218;42.874;25.320;2022-08-19T14:23:50;6.07;;;5.15;;
20114;SDS011;10218;42.874;25.320;2022-08-19T14:26:19;8.40;;;5.28;;
20114;SDS011;10218;42.874;25.320;2022-08-19T14:28:47;8.95;;;5.65;;
20114;SDS011;10218;42.874;25.320;2022-08-19T14:31:16;23.52;;;9.85;;
20114;SDS011;10218;42.874;25.320;2022-08-19T14:33:48;8.98;;;5.87;;
20114;SDS011;10218;42.874;25.320;2022-08-19T14:36:17;7.32;;;5.15;;
20114;SDS011;10218;42.874;25.320;2022-08-19T14:38:46;6.35;;;5.03;;
20114;SDS011;10218;42.874;25.320;2022-08-19T14:41:17;6.22;;;5.50;;
20114;SDS011;10218;42.874;25.320;2022-08-19T14:43:48;10.65;;;5.70;;
20114;SDS011;10218;42.874;25.320;2022-08-19T14:46:18;7.20;;;6.07;;
20114;SDS011;10218;42.874;25.320;2022-08-19T14:48:48;27.58;;;6.30;;
20114;SDS011;10218;42.874;25.320;2022-08-19T14:51:16;20.17;;;6.32;;
20114;SDS011;10218;42.874;25.320;2022-08-19T14:53:44;9.50;;;5.75;;
20114;SDS011;10218;42.874;25.320;2022-08-19T14:56:13;13.02;;;5.80;;
20114;SDS011;10218;42.874;25.320;2022-08-19T14:58:42;9.57;;;5.45;;
20114;SDS011;10218;42.874;25.320;2022-08-19T15:01:10;6.93;;;5.45;;